createdAt,value
2018-09-03T00:02:19.110Z,14.40
2018-09-03T00:04:46.477Z,14.40
2018-09-03T00:07:13.892Z,14.40
2018-09-03T00:09:42.200Z,14.40
2018-09-03T00:12:10.496Z,14.20
2018-09-03T00:14:38.103Z,14.40
2018-09-03T00:17:05.968Z,14.40
2018-09-03T00:19:33.308Z,14.40
2018-09-03T00:22:00.658Z,14.30
2018-09-03T00:24:28.053Z,14.20
2018-09-03T00:26:55.466Z,14.30
2018-09-03T00:29:22.819Z,14.20
2018-09-03T00:31:55.963Z,14.10
2018-09-03T00:34:28.920Z,14.10
2018-09-03T00:37:01.916Z,14.10
2018-09-03T00:39:34.910Z,14.10
2018-09-03T00:42:07.880Z,14.00
2018-09-03T00:44:40.880Z,14.10
2018-09-03T00:47:09.780Z,14.00
2018-09-03T00:49:37.238Z,14.10
2018-09-03T00:52:04.536Z,14.00
2018-09-03T00:54:32.547Z,14.10
2018-09-03T00:56:59.884Z,14.00
2018-09-03T00:59:27.231Z,14.00
2018-09-03T01:01:54.571Z,14.00
2018-09-03T01:04:21.909Z,14.00
2018-09-03T01:06:49.344Z,13.90
2018-09-03T01:09:16.756Z,14.00
2018-09-03T01:11:44.108Z,14.10
2018-09-03T01:14:11.468Z,14.00
2018-09-03T01:16:38.826Z,14.10
2018-09-03T01:19:06.180Z,14.10
2018-09-03T01:21:33.604Z,14.00
2018-09-03T01:24:00.940Z,14.00
2018-09-03T01:26:28.305Z,13.90
2018-09-03T01:28:55.706Z,13.90
2018-09-03T01:31:23.074Z,13.90
2018-09-03T01:33:52.736Z,13.80
2018-09-03T01:36:20.499Z,13.80
2018-09-03T01:38:47.871Z,13.70
2018-09-03T01:41:15.974Z,13.60
2018-09-03T01:43:43.507Z,13.70
2018-09-03T01:46:10.862Z,13.70
2018-09-03T01:48:38.467Z,13.60
2018-09-03T01:51:06.339Z,13.60
2018-09-03T01:53:33.737Z,13.50
2018-09-03T01:56:01.113Z,13.70
2018-09-03T01:58:28.504Z,13.70
2018-09-03T02:00:55.982Z,13.80
2018-09-03T02:03:23.657Z,13.80
2018-09-03T02:05:51.036Z,13.90
2018-09-03T02:08:18.452Z,14.00
2018-09-03T02:10:45.794Z,14.00
2018-09-03T02:13:13.220Z,14.00
2018-09-03T02:15:40.606Z,14.10
2018-09-03T02:18:08.034Z,14.00
2018-09-03T02:20:35.411Z,14.00
2018-09-03T02:23:03.260Z,14.00
2018-09-03T02:25:30.753Z,14.00
2018-09-03T02:27:58.094Z,14.10
2018-09-03T02:30:25.576Z,14.00
2018-09-03T02:32:53.039Z,14.10
2018-09-03T02:35:20.417Z,14.10
2018-09-03T02:37:47.796Z,14.10
2018-09-03T02:40:15.215Z,14.10
2018-09-03T02:42:42.622Z,14.10
2018-09-03T02:45:10.484Z,14.20
2018-09-03T02:47:38.229Z,14.00
2018-09-03T02:50:06.044Z,14.00
2018-09-03T02:52:33.714Z,14.00
2018-09-03T02:55:02.078Z,14.10
2018-09-03T02:57:29.505Z,14.10
2018-09-03T02:59:56.854Z,14.10
2018-09-03T03:02:24.341Z,14.00
2018-09-03T03:04:51.901Z,14.00
2018-09-03T03:07:19.295Z,13.90
2018-09-03T03:09:46.700Z,14.00
2018-09-03T03:12:18.627Z,14.00
2018-09-03T03:14:46.016Z,13.90
2018-09-03T03:17:13.355Z,13.90
2018-09-03T03:19:40.752Z,14.00
2018-09-03T03:22:08.095Z,14.10
2018-09-03T03:24:35.430Z,14.20
2018-09-03T03:27:02.785Z,14.20
2018-09-03T03:29:30.134Z,14.20
2018-09-03T03:31:57.488Z,14.30
2018-09-03T03:34:24.869Z,14.40
2018-09-03T03:36:52.249Z,14.50
2018-09-03T03:39:19.644Z,14.50
2018-09-03T03:41:47.011Z,14.60
2018-09-03T03:44:14.329Z,14.60
2018-09-03T03:46:41.724Z,14.80
2018-09-03T03:49:09.162Z,14.80
2018-09-03T03:51:36.508Z,14.80
2018-09-03T03:54:03.930Z,14.80
2018-09-03T03:56:31.276Z,14.80
2018-09-03T03:58:58.709Z,14.90
2018-09-03T04:01:26.111Z,14.90
2018-09-03T04:03:53.429Z,15.00
2018-09-03T04:06:20.804Z,14.90
2018-09-03T04:08:48.137Z,15.00
2018-09-03T04:11:15.484Z,15.00
2018-09-03T04:13:43.780Z,15.10
2018-09-03T04:16:11.173Z,15.10
2018-09-03T04:18:38.547Z,15.20
2018-09-03T04:21:05.930Z,15.20
2018-09-03T04:23:33.295Z,15.20
2018-09-03T04:26:00.780Z,15.20
2018-09-03T04:28:28.116Z,15.20
2018-09-03T04:30:55.513Z,15.20
2018-09-03T04:33:22.956Z,15.10
2018-09-03T04:35:50.327Z,15.20
2018-09-03T04:38:17.823Z,14.70
2018-09-03T04:40:45.231Z,15.30
2018-09-03T04:43:12.559Z,15.30
2018-09-03T04:45:40.024Z,15.20
2018-09-03T04:48:07.451Z,15.30
2018-09-03T04:50:34.772Z,15.30
2018-09-03T04:53:02.132Z,15.30
2018-09-03T04:55:29.507Z,15.30
2018-09-03T04:57:56.882Z,15.30
2018-09-03T05:00:24.215Z,15.30
2018-09-03T05:02:51.656Z,15.40
2018-09-03T05:05:19.012Z,15.40
2018-09-03T05:07:46.368Z,15.40
2018-09-03T05:10:13.724Z,15.40
2018-09-03T05:12:41.068Z,15.40
2018-09-03T05:15:08.419Z,15.50
2018-09-03T05:17:35.791Z,15.50
2018-09-03T05:20:03.144Z,15.50
2018-09-03T05:22:30.460Z,15.50
2018-09-03T05:24:57.816Z,15.50
2018-09-03T05:27:25.197Z,15.50
2018-09-03T05:29:52.597Z,15.60
2018-09-03T05:32:19.943Z,15.60
2018-09-03T05:34:47.331Z,15.70
2018-09-03T05:37:14.668Z,15.70
2018-09-03T05:39:41.991Z,15.70
2018-09-03T05:42:09.334Z,15.80
2018-09-03T05:44:36.708Z,15.80
2018-09-03T05:47:04.909Z,15.80
2018-09-03T05:49:32.279Z,15.80
2018-09-03T05:51:59.621Z,15.80
2018-09-03T05:54:26.967Z,15.90
2018-09-03T05:56:54.339Z,15.90
2018-09-03T05:59:21.714Z,16.00
2018-09-03T06:01:49.126Z,16.00
2018-09-03T06:04:16.536Z,16.00
2018-09-03T06:06:43.879Z,16.00
2018-09-03T06:09:12.183Z,16.00
2018-09-03T06:11:39.947Z,16.10
2018-09-03T06:14:07.544Z,16.10
2018-09-03T06:16:35.252Z,16.00
2018-09-03T06:19:02.619Z,16.10
2018-09-03T06:21:29.970Z,16.10
2018-09-03T06:23:57.418Z,16.10
2018-09-03T06:26:24.771Z,16.30
2018-09-03T06:28:52.103Z,16.30
2018-09-03T06:31:19.447Z,16.30
2018-09-03T06:36:14.135Z,16.30
2018-09-03T06:38:41.517Z,16.30
2018-09-03T06:41:08.882Z,16.30
2018-09-03T06:43:36.260Z,16.40
2018-09-03T06:46:03.607Z,16.50
2018-09-03T06:48:30.936Z,16.60
2018-09-03T06:50:58.276Z,16.60
2018-09-03T06:53:25.628Z,16.70
2018-09-03T06:55:52.980Z,16.90
2018-09-03T06:58:20.352Z,16.90
2018-09-03T07:00:47.692Z,16.90
2018-09-03T07:03:15.044Z,16.90
2018-09-03T07:05:42.407Z,17.00
2018-09-03T07:08:09.746Z,16.90
2018-09-03T07:10:37.155Z,17.00
2018-09-03T07:13:05.580Z,17.00
2018-09-03T07:15:33.355Z,17.00
2018-09-03T07:18:00.810Z,17.10
2018-09-03T07:25:22.857Z,17.10
2018-09-03T07:27:50.250Z,17.10
2018-09-03T07:30:17.630Z,17.30
2018-09-03T07:32:44.995Z,17.30
2018-09-03T07:35:12.410Z,17.30
2018-09-03T07:37:39.744Z,17.30
2018-09-03T07:40:07.282Z,17.30
2018-09-03T07:42:34.723Z,17.20
2018-09-03T07:45:02.159Z,17.20
2018-09-03T07:47:29.673Z,17.20
2018-09-03T07:49:56.991Z,17.30
2018-09-03T07:52:24.387Z,17.30
2018-09-03T07:54:51.755Z,17.30
2018-09-03T07:57:19.128Z,17.30
2018-09-03T07:59:46.473Z,17.30
2018-09-03T08:02:13.835Z,17.30
2018-09-03T08:04:42.637Z,17.30
2018-09-03T08:07:10.288Z,17.40
2018-09-03T08:09:37.644Z,17.50
2018-09-03T08:12:05.612Z,17.50
2018-09-03T08:14:32.948Z,17.70
2018-09-03T08:17:00.300Z,17.90
2018-09-03T08:24:22.352Z,18.00
2018-09-03T08:26:49.746Z,18.10
2018-09-03T08:29:17.130Z,18.20
2018-09-03T08:31:44.476Z,18.30
2018-09-03T08:34:12.696Z,18.50
2018-09-03T08:36:40.220Z,18.30
2018-09-03T08:39:07.607Z,18.60
2018-09-03T08:41:35.412Z,18.70
2018-09-03T08:44:02.784Z,18.50
2018-09-03T08:46:30.282Z,18.60
2018-09-03T08:48:57.642Z,18.80
2018-09-03T08:51:25.036Z,18.80
2018-09-03T08:53:52.544Z,19.10
2018-09-03T08:56:19.955Z,19.00
2018-09-03T08:58:47.366Z,19.10
2018-09-03T09:01:14.736Z,18.90
2018-09-03T09:03:43.185Z,19.20
2018-09-03T09:06:11.187Z,19.30
2018-09-03T09:08:38.568Z,19.00
2018-09-03T09:11:06.968Z,19.20
2018-09-03T09:13:34.330Z,19.30
2018-09-03T09:16:01.689Z,19.40
2018-09-03T09:18:29.312Z,19.30
2018-09-03T09:20:56.700Z,19.30
2018-09-03T09:23:24.073Z,19.20
2018-09-03T09:25:51.409Z,19.10
2018-09-03T09:28:18.777Z,19.00
2018-09-03T09:30:46.234Z,19.20
2018-09-03T09:33:13.593Z,19.40
2018-09-03T09:35:40.926Z,19.60
2018-09-03T09:38:08.325Z,19.60
2018-09-03T09:40:35.756Z,19.60
2018-09-03T09:43:03.178Z,19.50
2018-09-03T09:45:30.460Z,19.50
2018-09-03T09:47:57.779Z,19.40
2018-09-03T09:50:25.172Z,19.50
2018-09-03T09:52:52.531Z,19.40
2018-09-03T09:55:19.898Z,19.50
2018-09-03T09:57:47.272Z,19.70
2018-09-03T10:01:21.266Z,19.70
2018-09-03T10:03:48.596Z,19.60
2018-09-03T10:06:15.961Z,19.90
2018-09-03T10:08:43.292Z,20.00
2018-09-03T10:11:10.640Z,19.90
2018-09-03T10:13:37.998Z,19.80
2018-09-03T10:16:05.456Z,20.00
2018-09-03T10:18:33.004Z,20.10
2018-09-03T10:21:00.392Z,19.80
2018-09-03T10:23:28.437Z,20.00
2018-09-03T10:25:55.770Z,20.10
2018-09-03T10:28:23.111Z,20.30
2018-09-03T10:30:50.437Z,20.00
2018-09-03T10:33:17.779Z,20.10
2018-09-03T10:35:45.120Z,20.10
2018-09-03T10:38:12.533Z,20.00
2018-09-03T10:40:39.826Z,19.90
2018-09-03T10:43:07.172Z,19.80
2018-09-03T10:45:39.233Z,19.70
2018-09-03T10:48:06.590Z,19.90
2018-09-03T10:50:33.925Z,19.70
2018-09-03T10:53:01.276Z,19.70
2018-09-03T10:55:28.640Z,19.80
2018-09-03T10:57:55.992Z,19.70
2018-09-03T11:00:23.342Z,19.90
2018-09-03T11:02:50.674Z,20.00
2018-09-03T11:05:18.079Z,20.10
2018-09-03T11:07:45.435Z,20.50
2018-09-03T11:10:12.786Z,20.60
2018-09-03T11:12:40.119Z,20.50
2018-09-03T11:15:07.481Z,20.80
2018-09-03T11:17:34.843Z,21.00
2018-09-03T11:20:04.225Z,21.20
2018-09-03T11:22:31.561Z,21.30
2018-09-03T11:24:59.552Z,20.90
2018-09-03T11:27:27.094Z,20.60
2018-09-03T11:29:54.551Z,20.60
2018-09-03T11:32:21.898Z,20.70
2018-09-03T11:34:49.276Z,20.40
2018-09-03T11:37:16.632Z,20.50
2018-09-03T11:39:44.019Z,20.70
2018-09-03T11:42:11.372Z,20.60
2018-09-03T11:44:38.758Z,20.80
2018-09-03T11:47:06.140Z,20.90
2018-09-03T11:49:33.489Z,20.90
2018-09-03T11:52:00.884Z,20.90
2018-09-03T11:54:28.283Z,21.20
2018-09-03T11:56:55.569Z,21.50
2018-09-03T11:59:22.896Z,21.70
2018-09-03T12:01:50.426Z,21.70
2018-09-03T12:04:17.844Z,21.70
2018-09-03T12:06:45.242Z,21.90
2018-09-03T12:09:12.556Z,21.90
2018-09-03T12:11:39.911Z,22.20
2018-09-03T12:14:14.012Z,22.20
2018-09-03T12:16:41.430Z,22.10
2018-09-03T12:19:08.795Z,22.10
2018-09-03T12:21:37.067Z,21.80
2018-09-03T12:24:04.448Z,22.10
2018-09-03T12:26:31.815Z,22.30
2018-09-03T12:28:59.164Z,22.30
2018-09-03T12:31:26.528Z,22.30
2018-09-03T12:33:53.865Z,22.20
2018-09-03T12:36:21.244Z,22.60
2018-09-03T12:38:48.603Z,22.30
2018-09-03T12:41:15.979Z,22.30
2018-09-03T12:43:43.376Z,22.60
2018-09-03T12:46:10.731Z,22.60
2018-09-03T12:48:38.063Z,23.20
2018-09-03T12:51:05.611Z,23.10
2018-09-03T12:53:33.204Z,23.30
2018-09-03T12:56:00.915Z,23.30
2018-09-03T12:58:28.261Z,23.20
2018-09-03T13:00:55.643Z,23.50
2018-09-03T13:03:23.002Z,23.80
2018-09-03T13:05:50.370Z,24.00
2018-09-03T13:08:17.722Z,23.90
2018-09-03T13:10:45.076Z,23.80
2018-09-03T13:13:12.448Z,23.70
2018-09-03T13:15:39.799Z,23.50
2018-09-03T13:18:07.131Z,23.20
2018-09-03T13:20:34.478Z,23.90
2018-09-03T13:23:01.819Z,24.40
2018-09-03T13:25:29.212Z,23.90
2018-09-03T13:27:56.562Z,23.50
2018-09-03T13:30:23.916Z,23.30
2018-09-03T13:32:51.255Z,23.40
2018-09-03T13:35:19.220Z,23.20
2018-09-03T13:37:46.588Z,23.20
2018-09-03T13:40:13.942Z,23.40
2018-09-03T13:42:41.279Z,22.90
2018-09-03T13:45:08.680Z,22.80
2018-09-03T13:47:36.051Z,22.80
2018-09-03T13:50:03.405Z,23.00
2018-09-03T13:52:30.745Z,22.70
2018-09-03T13:54:58.154Z,22.50
2018-09-03T13:57:25.486Z,22.00
2018-09-03T13:59:52.836Z,22.10
2018-09-03T14:02:20.195Z,22.20
2018-09-03T14:04:47.580Z,21.90
2018-09-03T14:07:15.266Z,21.80
2018-09-03T14:09:42.732Z,22.00
2018-09-03T14:12:10.225Z,22.30
2018-09-03T14:14:37.583Z,22.30
2018-09-03T14:17:05.220Z,22.10
2018-09-03T14:19:32.563Z,22.00
2018-09-03T14:21:59.932Z,21.80
2018-09-03T14:24:27.278Z,21.90
2018-09-03T14:26:54.678Z,22.00
2018-09-03T14:29:22.042Z,21.90
2018-09-03T14:31:49.403Z,21.80
2018-09-03T14:34:16.737Z,22.10
2018-09-03T14:36:44.097Z,22.10
2018-09-03T14:39:12.103Z,22.10
2018-09-03T14:41:39.478Z,22.20
2018-09-03T14:44:07.129Z,22.40
2018-09-03T14:46:34.466Z,22.10
2018-09-03T14:49:01.799Z,22.10
2018-09-03T14:51:29.320Z,22.10
2018-09-03T14:53:56.699Z,22.30
2018-09-03T14:56:24.234Z,21.90
2018-09-03T14:58:51.556Z,21.40
2018-09-03T15:01:18.921Z,21.30
2018-09-03T15:03:46.353Z,21.30
2018-09-03T15:06:13.729Z,21.50
2018-09-03T15:08:41.092Z,21.70
2018-09-03T15:11:08.852Z,21.60
2018-09-03T15:13:36.195Z,21.70
2018-09-03T15:18:31.039Z,21.50
2018-09-03T15:20:58.437Z,21.30
2018-09-03T15:23:26.152Z,21.10
2018-09-03T15:25:53.529Z,21.30
2018-09-03T15:28:20.964Z,21.30
2018-09-03T15:30:48.304Z,21.20
2018-09-03T15:33:15.667Z,21.20
2018-09-03T15:35:43.027Z,20.90
2018-09-03T15:38:10.587Z,21.00
2018-09-03T15:40:37.958Z,21.10
2018-09-03T15:43:05.354Z,21.30
2018-09-03T15:45:32.671Z,21.30
2018-09-03T15:48:00.060Z,20.90
2018-09-03T15:50:27.495Z,20.80
2018-09-03T15:52:54.850Z,20.60
2018-09-03T15:55:22.210Z,20.70
2018-09-03T15:57:49.548Z,20.60
2018-09-03T16:00:16.932Z,20.80
2018-09-03T16:02:44.301Z,20.80
2018-09-03T16:05:11.674Z,20.60
2018-09-03T16:07:39.019Z,20.50
2018-09-03T16:10:07.458Z,20.30
2018-09-03T16:12:34.792Z,20.20
2018-09-03T16:15:02.164Z,20.30
2018-09-03T16:17:29.495Z,20.30
2018-09-03T16:19:56.831Z,20.30
2018-09-03T16:22:24.212Z,20.40
2018-09-03T16:24:51.641Z,20.10
2018-09-03T16:27:19.087Z,20.20
2018-09-03T16:29:46.437Z,20.10
2018-09-03T16:32:13.843Z,20.00
2018-09-03T16:34:41.180Z,19.80
2018-09-03T16:37:08.547Z,19.70
2018-09-03T16:39:35.913Z,19.80
2018-09-03T16:42:03.321Z,19.90
2018-09-03T16:44:30.874Z,19.80
2018-09-03T16:46:58.262Z,19.80
2018-09-03T16:49:25.620Z,19.90
2018-09-03T16:51:52.980Z,20.00
2018-09-03T16:54:20.337Z,19.90
2018-09-03T16:56:47.693Z,20.10
2018-09-03T16:59:15.042Z,20.20
2018-09-03T17:01:42.384Z,20.10
2018-09-03T17:04:09.794Z,20.20
2018-09-03T17:06:37.140Z,20.00
2018-09-03T17:09:05.069Z,20.00
2018-09-03T17:11:32.432Z,20.10
2018-09-03T17:13:59.788Z,20.00
2018-09-03T17:16:27.236Z,19.90
2018-09-03T17:18:54.629Z,19.80
2018-09-03T17:21:21.964Z,19.90
2018-09-03T17:23:49.307Z,19.90
2018-09-03T17:26:16.795Z,19.80
2018-09-03T17:28:44.283Z,19.90
2018-09-03T17:31:11.588Z,19.70
2018-09-03T17:33:39.199Z,19.50
2018-09-03T17:36:06.539Z,19.40
2018-09-03T17:38:34.435Z,19.30
2018-09-03T17:41:01.866Z,19.20
2018-09-03T17:43:29.239Z,19.10
2018-09-03T17:45:56.630Z,19.10
2018-09-03T17:48:24.123Z,19.00
2018-09-03T17:50:51.495Z,19.00
2018-09-03T17:53:18.869Z,19.00
2018-09-03T17:55:46.194Z,18.90
2018-09-03T17:58:13.563Z,18.90
2018-09-03T18:00:41.199Z,18.90
2018-09-03T18:03:08.653Z,18.90
2018-09-03T18:05:36.807Z,18.90
2018-09-03T18:08:04.224Z,18.80
2018-09-03T18:10:31.596Z,18.80
2018-09-03T18:12:59.016Z,18.80
2018-09-03T18:15:26.371Z,18.80
2018-09-03T18:17:53.744Z,18.70
2018-09-03T18:20:21.166Z,18.70
2018-09-03T18:22:48.512Z,18.80
2018-09-03T18:25:15.897Z,18.80
2018-09-03T18:27:43.263Z,18.60
2018-09-03T18:30:10.675Z,18.60
2018-09-03T18:32:38.283Z,18.60
2018-09-03T18:35:05.872Z,18.50
2018-09-03T18:37:33.890Z,18.50
2018-09-03T18:40:01.239Z,18.50
2018-09-03T18:42:28.700Z,18.50
2018-09-03T18:44:56.263Z,18.50
2018-09-03T18:47:23.799Z,18.40
2018-09-03T18:49:51.400Z,18.30
2018-09-03T18:52:18.789Z,18.30
2018-09-03T18:54:46.163Z,18.20
2018-09-03T18:57:13.516Z,18.20
2018-09-03T18:59:40.892Z,18.10
2018-09-03T19:02:08.535Z,18.10
2018-09-03T19:04:35.906Z,18.10
2018-09-03T19:07:03.625Z,18.20
2018-09-03T19:09:31.042Z,18.30
2018-09-03T19:11:58.673Z,18.30
2018-09-03T19:14:26.239Z,18.30
2018-09-03T19:16:54.189Z,18.40
2018-09-03T19:19:21.636Z,18.50
2018-09-03T19:21:49.030Z,18.40
2018-09-03T19:24:16.358Z,18.40
2018-09-03T19:26:43.744Z,18.40
2018-09-03T19:29:11.156Z,18.50
2018-09-03T19:31:38.806Z,18.60
2018-09-03T19:34:06.312Z,18.60
2018-09-03T19:36:33.742Z,18.50
2018-09-03T19:39:01.079Z,18.60
2018-09-03T19:41:28.480Z,18.60
2018-09-03T19:43:56.009Z,18.60
2018-09-03T19:46:23.377Z,18.60
2018-09-03T19:48:51.101Z,18.50
2018-09-03T19:51:18.477Z,18.60
2018-09-03T19:53:45.853Z,18.50
2018-09-03T19:56:13.275Z,18.50
2018-09-03T19:58:40.636Z,18.50
2018-09-03T20:01:08.040Z,18.40
2018-09-03T20:03:35.369Z,18.40
2018-09-03T20:06:02.930Z,18.40
2018-09-03T20:08:30.483Z,18.40
2018-09-03T20:10:57.816Z,18.40
2018-09-03T20:13:25.236Z,18.40
2018-09-03T20:15:52.657Z,18.40
2018-09-03T20:18:20.008Z,18.50
2018-09-03T20:20:47.414Z,18.40
2018-09-03T20:23:14.785Z,18.40
2018-09-03T20:25:42.147Z,18.40
2018-09-03T20:28:09.632Z,18.40
2018-09-03T20:30:37.114Z,18.70
2018-09-03T20:33:04.454Z,18.60
2018-09-03T20:35:31.840Z,18.50
2018-09-03T20:37:59.223Z,18.40
2018-09-03T20:40:26.605Z,18.40
2018-09-03T20:42:54.055Z,18.40
2018-09-03T20:45:21.444Z,18.40
2018-09-03T20:47:48.872Z,18.50
2018-09-03T20:50:16.242Z,18.50
2018-09-03T20:52:43.618Z,18.40
2018-09-03T20:55:11.358Z,18.40
2018-09-03T20:57:38.678Z,18.40
2018-09-03T21:00:06.555Z,18.50
2018-09-03T21:02:33.887Z,18.40
2018-09-03T21:05:01.234Z,18.40
2018-09-03T21:07:28.601Z,18.50
2018-09-03T21:12:23.293Z,18.40
2018-09-03T21:14:50.652Z,18.40
2018-09-03T21:17:18.029Z,18.60
2018-09-03T21:19:45.378Z,18.50
2018-09-03T21:22:12.742Z,18.50
2018-09-03T21:24:40.095Z,18.40
2018-09-03T21:27:07.607Z,18.40
2018-09-03T21:29:35.015Z,18.50
2018-09-03T21:32:02.652Z,18.40
2018-09-03T21:34:29.983Z,18.50
2018-09-03T21:36:57.320Z,18.40
2018-09-03T21:39:24.667Z,18.40
2018-09-03T21:41:52.214Z,18.40
2018-09-03T21:44:19.626Z,18.40
2018-09-03T21:46:47.020Z,18.40
2018-09-03T21:49:14.467Z,18.40
2018-09-03T21:51:41.825Z,18.30
2018-09-03T21:54:09.188Z,18.30
2018-09-03T21:56:36.578Z,18.20
2018-09-03T21:59:03.945Z,18.10
2018-09-03T22:01:31.611Z,18.00
2018-09-03T22:03:58.983Z,18.30
2018-09-03T22:06:26.627Z,18.40
2018-09-03T22:08:53.996Z,18.40
2018-09-03T22:11:21.374Z,18.40
2018-09-03T22:13:48.752Z,18.40
2018-09-03T22:16:16.100Z,18.30
2018-09-03T22:18:43.478Z,18.50
2018-09-03T22:21:10.834Z,18.60
2018-09-03T22:23:38.405Z,18.50
2018-09-03T22:26:05.954Z,18.50
2018-09-03T22:28:33.848Z,18.50
2018-09-03T22:35:56.030Z,18.50
2018-09-03T22:38:23.424Z,18.50
2018-09-03T22:40:50.790Z,18.50
2018-09-03T22:43:18.141Z,18.40
2018-09-03T22:45:45.529Z,18.40
2018-09-03T22:48:12.908Z,18.40
2018-09-03T22:50:40.246Z,18.40
2018-09-03T22:53:07.604Z,18.40
2018-09-03T22:55:34.960Z,18.30
2018-09-03T22:58:02.303Z,18.40
2018-09-03T23:00:29.657Z,18.40
2018-09-03T23:02:57.048Z,18.30
2018-09-03T23:05:24.387Z,18.30
2018-09-03T23:07:51.733Z,18.30
2018-09-03T23:10:19.088Z,18.30
2018-09-03T23:12:46.480Z,18.30
2018-09-03T23:15:13.852Z,18.30
2018-09-03T23:17:41.204Z,18.30
2018-09-03T23:20:08.551Z,18.30
2018-09-03T23:22:35.893Z,18.30
2018-09-03T23:25:03.220Z,18.30
2018-09-03T23:27:30.540Z,18.30
2018-09-03T23:29:57.880Z,18.30
2018-09-03T23:32:25.257Z,18.30
2018-09-03T23:34:52.671Z,18.30
2018-09-03T23:37:20.001Z,18.30
2018-09-03T23:39:47.357Z,18.30
2018-09-03T23:42:14.705Z,18.30
2018-09-03T23:44:42.094Z,18.30
2018-09-03T23:47:09.433Z,18.30
2018-09-03T23:49:36.796Z,18.40
2018-09-03T23:52:04.159Z,18.40
2018-09-03T23:56:58.857Z,18.30
2018-09-03T23:59:26.196Z,18.40
